createdAt,value
2019-01-26T00:25:14.367Z,95816.95
2019-01-26T00:28:01.379Z,95878.06
2019-01-26T00:30:51.224Z,95888.02
2019-01-26T00:37:45.050Z,95880.20
2019-01-26T00:44:52.384Z,95876.92
2019-01-26T00:59:56.500Z,95861.22
2019-01-26T01:07:09.418Z,95864.58
2019-01-26T01:09:59.631Z,95829.61
2019-01-26T01:13:43.493Z,95866.62
2019-01-26T01:16:36.012Z,95873.66
2019-01-26T01:19:24.466Z,95869.14
2019-01-26T01:46:00.533Z,95856.40
2019-01-26T01:49:07.962Z,95851.04
2019-01-26T01:51:57.542Z,95856.00
2019-01-26T01:54:45.827Z,95854.78
2019-01-26T01:57:53.113Z,95845.69
2019-01-26T02:01:00.727Z,95841.98
2019-01-26T02:03:50.340Z,95822.88
2019-01-26T02:06:57.512Z,95826.26
2019-01-26T02:10:04.454Z,95828.34
2019-01-26T02:15:47.049Z,95794.28
2019-01-26T02:22:40.860Z,95830.94
2019-01-26T02:25:30.458Z,95812.30
2019-01-26T02:31:18.112Z,95796.45
2019-01-26T02:50:05.666Z,95772.15
2019-01-26T02:52:55.551Z,95723.98
2019-01-26T03:03:56.522Z,95739.42
2019-01-26T03:07:04.027Z,95694.69
2019-01-26T03:10:46.565Z,95635.38
2019-01-26T03:13:36.198Z,95634.54
2019-01-26T03:21:10.857Z,95676.88
2019-01-26T03:24:00.435Z,95680.63
2019-01-26T03:26:50.289Z,95632.48
2019-01-26T03:29:38.523Z,95691.41
2019-01-26T03:54:47.288Z,95746.91
2019-01-26T04:07:13.444Z,95710.05
2019-01-26T04:09:55.918Z,95678.16
2019-01-26T04:12:45.517Z,95664.89
2019-01-26T04:16:31.735Z,95612.61
2019-01-26T04:19:38.905Z,95635.88
2019-01-26T04:23:22.716Z,95599.39
2019-01-26T04:26:12.295Z,95546.75
2019-01-26T04:29:01.043Z,95549.64
2019-01-26T04:38:19.423Z,95498.22
2019-01-26T04:41:09.040Z,95418.70
2019-01-26T04:43:58.607Z,95430.64
2019-01-26T04:46:48.185Z,95279.74
2019-01-26T04:49:55.655Z,95257.72
2019-01-26T04:52:45.234Z,95108.47
2019-01-26T04:55:35.094Z,95011.66
2019-01-26T04:58:24.668Z,95030.44
2019-01-26T05:01:14.246Z,95035.81
2019-01-26T05:04:04.199Z,95032.08
2019-01-26T05:06:53.820Z,95015.87
2019-01-26T05:09:43.762Z,94992.59
2019-01-26T05:12:33.340Z,94963.12
2019-01-26T05:15:22.915Z,94929.09
2019-01-26T05:18:12.498Z,94893.87
2019-01-26T05:21:02.091Z,94806.73
2019-01-26T05:23:51.678Z,94770.11
2019-01-26T05:26:41.283Z,94749.78
2019-01-26T05:29:23.678Z,94723.26
2019-01-26T05:32:13.283Z,94696.70
2019-01-26T05:35:02.879Z,94619.84
2019-01-26T05:37:52.472Z,94621.02
2019-01-26T05:40:42.055Z,94611.91
2019-01-26T05:46:21.131Z,94548.80
2019-01-26T05:49:10.984Z,94443.66
2019-01-26T05:52:00.575Z,94420.25
2019-01-26T05:54:50.158Z,94401.15
2019-01-26T05:57:59.207Z,94380.83
2019-01-26T06:00:48.808Z,94374.59
2019-01-26T06:09:51.402Z,94293.19
2019-01-26T06:21:37.880Z,94198.05
2019-01-26T06:27:23.815Z,94120.08
2019-01-26T06:33:06.697Z,94076.45
2019-01-26T06:43:09.150Z,93968.52
2019-01-26T06:51:58.734Z,93973.04
2019-01-26T07:07:44.155Z,94108.09
2019-01-26T07:20:27.075Z,94109.85
2019-01-26T07:23:16.677Z,94130.13
2019-01-26T07:35:09.155Z,94120.45
2019-01-26T07:37:58.740Z,94124.45
2019-01-26T07:52:54.589Z,94086.33
2019-01-26T08:09:55.090Z,94101.27
2019-01-26T08:19:40.088Z,94111.05
2019-01-26T08:28:48.003Z,94109.28
2019-01-26T08:31:37.637Z,94091.21
2019-01-26T08:34:45.097Z,94094.42
2019-01-26T08:37:34.687Z,94113.87
2019-01-26T08:40:24.517Z,94097.12
2019-01-26T08:43:14.119Z,94097.24
2019-01-26T08:46:03.719Z,94115.51
2019-01-26T08:48:53.617Z,94122.12
2019-01-26T08:52:37.827Z,94119.84
2019-01-26T08:59:16.664Z,94070.29
2019-01-26T09:07:56.459Z,94111.47
2019-01-26T09:10:46.019Z,94110.99
2019-01-26T09:13:35.604Z,94107.12
2019-01-26T09:19:17.813Z,94095.78
2019-01-26T09:22:07.491Z,94105.86
2019-01-26T09:24:57.072Z,94104.52
2019-01-26T09:31:16.574Z,94109.16
2019-01-26T09:34:27.016Z,94090.70
2019-01-26T09:37:16.611Z,94095.91
2019-01-26T09:40:07.188Z,94066.17
2019-01-26T09:42:56.813Z,94047.87
2019-01-26T09:45:46.714Z,94074.66
2019-01-26T09:48:36.324Z,94072.42
2019-01-26T09:51:25.919Z,94064.71
2019-01-26T09:54:15.537Z,94063.13
2019-01-26T09:57:05.614Z,94070.48
2019-01-26T09:59:55.598Z,94080.36
2019-01-26T10:02:45.179Z,94082.20
2019-01-26T10:05:34.769Z,94096.23
2019-01-26T10:08:24.729Z,94106.22
2019-01-26T10:11:14.329Z,94117.28
2019-01-26T10:14:03.927Z,94119.67
2019-01-26T10:16:53.518Z,94138.51
2019-01-26T10:19:43.105Z,94122.63
2019-01-26T10:22:32.690Z,94152.55
2019-01-26T10:25:22.356Z,94175.63
2019-01-26T10:31:20.688Z,94211.38
2019-01-26T10:34:10.321Z,94209.02
2019-01-26T10:37:18.779Z,94221.23
2019-01-26T10:40:30.046Z,94214.80
2019-01-26T10:46:16.160Z,94248.89
2019-01-26T10:49:05.790Z,94263.88
2019-01-26T10:51:55.375Z,94219.58
2019-01-26T10:54:45.022Z,94328.84
2019-01-26T10:57:34.640Z,94345.56
2019-01-26T11:00:24.236Z,94350.46
2019-01-26T11:03:13.846Z,94341.41
2019-01-26T11:06:03.490Z,94341.75
2019-01-26T11:08:53.274Z,94382.77
2019-01-26T11:11:42.915Z,94392.63
2019-01-26T11:14:32.508Z,94411.31
2019-01-26T11:17:22.757Z,94392.35
2019-01-26T11:20:12.542Z,94442.20
2019-01-26T11:23:02.143Z,94454.13
2019-01-26T11:25:52.079Z,94466.57
2019-01-26T11:28:41.948Z,94460.41
2019-01-26T11:34:32.051Z,94545.69
2019-01-26T11:37:21.756Z,94552.20
2019-01-26T11:40:30.302Z,94570.05
2019-01-26T11:43:19.905Z,94588.47
2019-01-26T11:46:28.340Z,94602.19
2019-01-26T11:49:17.933Z,94583.02
2019-01-26T11:52:25.343Z,94648.03
2019-01-26T11:55:33.876Z,94706.38
2019-01-26T11:58:23.729Z,94710.36
2019-01-26T12:01:32.204Z,94734.73
2019-01-26T12:07:20.304Z,94768.55
2019-01-26T12:10:32.112Z,94795.31
2019-01-26T12:13:22.122Z,94807.94
2019-01-26T12:16:12.335Z,94805.53
2019-01-26T12:19:01.931Z,94805.47
2019-01-26T12:21:51.516Z,94837.08
2019-01-26T12:25:17.842Z,94837.44
2019-01-26T12:31:11.843Z,94851.91
2019-01-26T12:34:01.550Z,94856.58
2019-01-26T12:36:51.818Z,94896.71
2019-01-26T12:39:41.409Z,94906.73
2019-01-26T12:42:47.679Z,94917.89
2019-01-26T12:45:37.267Z,94942.88
2019-01-26T12:48:26.885Z,94954.84
2019-01-26T12:51:16.840Z,94964.38
2019-01-26T12:54:43.047Z,94987.09
2019-01-26T13:01:23.352Z,95043.09
2019-01-26T13:04:12.916Z,95066.34
2019-01-26T13:07:02.738Z,95097.33
2019-01-26T13:09:52.376Z,95112.79
2019-01-26T13:12:59.854Z,95105.75
2019-01-26T13:15:49.473Z,95145.98
2019-01-26T13:18:39.057Z,95143.55
2019-01-26T13:21:28.658Z,95161.87
2019-01-26T13:24:54.808Z,95151.28
2019-01-26T13:27:44.388Z,95201.05
2019-01-26T13:30:35.633Z,95211.08
2019-01-26T13:33:18.174Z,95232.76
2019-01-26T13:36:08.483Z,95260.84
2019-01-26T13:42:47.021Z,95293.46
2019-01-26T13:45:36.616Z,95305.83
2019-01-26T13:48:26.779Z,95328.92
2019-01-26T13:51:15.701Z,95360.80
2019-01-26T13:54:05.580Z,95366.87
2019-01-26T13:57:31.789Z,95380.04
2019-01-26T14:00:23.778Z,95386.27
2019-01-26T14:07:20.221Z,95447.29
2019-01-26T14:10:11.676Z,95426.00
2019-01-26T14:13:01.289Z,95457.43
2019-01-26T14:15:50.902Z,95481.30
2019-01-26T14:18:40.510Z,95487.63
2019-01-26T14:21:27.785Z,95464.35
2019-01-26T14:24:17.335Z,95511.20
2019-01-26T14:27:42.145Z,95514.91
2019-01-26T14:33:39.711Z,95510.78
2019-01-26T14:36:29.600Z,95522.16
2019-01-26T14:39:19.190Z,95524.27
2019-01-26T14:42:06.781Z,95530.97
2019-01-26T14:44:56.363Z,95520.13
2019-01-26T14:47:45.936Z,95531.41
2019-01-26T14:51:12.189Z,95518.39
2019-01-26T14:58:32.567Z,95519.48
2019-01-26T15:01:22.186Z,95503.69
2019-01-26T15:04:29.421Z,95510.83
2019-01-26T15:07:36.875Z,95519.47
2019-01-26T15:10:44.279Z,95504.78
2019-01-26T15:13:33.872Z,95525.05
2019-01-26T15:16:42.341Z,95528.78
2019-01-26T15:23:34.282Z,95521.77
2019-01-26T15:33:15.346Z,95479.28
2019-01-26T15:40:30.025Z,95486.23
2019-01-26T15:43:19.629Z,95504.45
2019-01-26T15:50:49.423Z,95496.90
2019-01-26T15:53:38.995Z,95485.70
2019-01-26T15:56:28.573Z,95503.16
2019-01-26T15:59:53.720Z,95499.07
2019-01-26T16:02:44.847Z,95491.61
2019-01-26T16:05:34.703Z,95458.73
2019-01-26T16:09:20.945Z,95475.88
2019-01-26T16:15:57.439Z,95446.79
2019-01-26T16:26:37.087Z,95414.92
2019-01-26T16:29:44.586Z,95413.19
2019-01-26T16:32:51.927Z,95412.37
2019-01-26T16:35:41.542Z,95402.05
2019-01-26T16:38:48.704Z,95388.77
2019-01-26T16:41:38.293Z,95378.81
2019-01-26T16:44:28.779Z,95363.02
2019-01-26T16:48:12.685Z,95356.33
2019-01-26T16:51:02.296Z,95338.41
2019-01-26T16:57:42.579Z,95302.98
2019-01-26T17:00:56.607Z,95265.45
2019-01-26T17:03:46.199Z,95260.45
2019-01-26T17:06:36.065Z,95242.19
2019-01-26T17:09:25.701Z,95231.31
2019-01-26T17:12:15.542Z,95220.52
2019-01-26T17:15:25.824Z,95206.39
2019-01-26T17:21:04.909Z,95159.67
2019-01-26T17:23:54.486Z,95153.41
2019-01-26T17:26:44.079Z,95139.99
2019-01-26T17:29:33.957Z,95122.98
2019-01-26T17:32:25.274Z,95117.50
2019-01-26T17:35:32.879Z,95089.44
2019-01-26T17:41:09.223Z,95041.67
2019-01-26T17:44:54.229Z,95073.38
2019-01-26T17:48:37.939Z,95069.14
2019-01-26T17:51:27.550Z,95029.36
2019-01-26T17:54:36.069Z,95022.83
2019-01-26T17:57:25.616Z,95034.58
2019-01-26T18:00:39.654Z,95013.20
2019-01-26T18:03:29.276Z,95009.44
2019-01-26T18:06:18.886Z,95008.12
2019-01-26T18:09:26.126Z,94971.13
2019-01-26T18:12:15.728Z,95003.50
2019-01-26T18:15:06.141Z,95001.82
2019-01-26T18:17:55.742Z,94990.69
2019-01-26T18:21:22.327Z,94993.05
2019-01-26T18:24:47.715Z,94977.19
2019-01-26T18:27:37.290Z,94972.09
2019-01-26T18:30:21.057Z,94956.72
2019-01-26T18:33:08.055Z,94927.63
2019-01-26T18:35:57.939Z,94940.47
2019-01-26T18:38:47.848Z,94931.75
2019-01-26T18:41:37.470Z,94940.53
2019-01-26T18:44:27.046Z,94949.09
2019-01-26T18:47:16.920Z,94939.16
2019-01-26T18:50:28.864Z,94925.70
2019-01-26T18:53:18.461Z,94914.86
2019-01-26T18:56:08.062Z,94913.61
2019-01-26T18:58:57.655Z,94918.20
2019-01-26T19:01:47.592Z,94913.56
2019-01-26T19:08:38.282Z,94894.20
2019-01-26T19:11:28.138Z,94882.88
2019-01-26T19:14:17.763Z,94863.20
2019-01-26T19:17:07.361Z,94871.46
2019-01-26T19:19:56.990Z,94820.41
2019-01-26T19:22:47.026Z,94883.97
2019-01-26T19:25:36.630Z,94850.27
2019-01-26T19:28:26.363Z,94891.88
2019-01-26T19:31:09.128Z,94873.94
2019-01-26T19:33:58.802Z,94878.97
2019-01-26T19:36:48.582Z,94882.26
2019-01-26T19:39:37.401Z,94876.88
2019-01-26T19:42:27.025Z,94873.05
2019-01-26T19:45:39.182Z,94879.76
2019-01-26T19:48:29.574Z,94881.09
2019-01-26T19:51:19.289Z,94875.62
2019-01-26T19:54:09.207Z,94877.23
2019-01-26T19:56:59.252Z,94874.59
2019-01-26T20:00:44.539Z,94845.42
2019-01-26T20:03:34.328Z,94878.20
2019-01-26T20:07:00.819Z,94878.41
2019-01-26T20:09:50.472Z,94865.01
2019-01-26T20:12:40.145Z,94876.67
2019-01-26T20:15:30.419Z,94843.91
2019-01-26T20:18:20.127Z,94861.95
2019-01-26T20:24:37.375Z,94867.21
2019-01-26T20:30:11.605Z,94836.27
2019-01-26T20:33:01.688Z,94879.95
2019-01-26T20:35:51.606Z,94862.88
2019-01-26T20:38:41.244Z,94875.56
2019-01-26T20:42:24.978Z,94885.00
2019-01-26T20:49:43.476Z,94890.93
2019-01-26T20:52:51.100Z,94891.69
2019-01-26T20:55:40.914Z,94877.84
2019-01-26T20:58:30.834Z,94879.81
2019-01-26T21:01:40.771Z,94894.09
2019-01-26T21:04:30.736Z,94891.42
2019-01-26T21:07:23.453Z,94849.50
2019-01-26T21:13:16.253Z,94899.55
2019-01-26T21:16:02.919Z,94907.06
2019-01-26T21:18:52.657Z,94900.78
2019-01-26T21:21:59.157Z,94892.84
2019-01-26T21:24:48.875Z,94865.84
2019-01-26T21:27:38.580Z,94899.09
2019-01-26T21:30:25.464Z,94910.35
2019-01-26T21:33:15.039Z,94879.12
2019-01-26T21:41:59.056Z,94908.72
2019-01-26T21:44:48.701Z,94918.40
2019-01-26T21:47:58.224Z,94920.44
2019-01-26T21:50:40.235Z,94917.94
2019-01-26T21:53:30.617Z,94914.48
2019-01-26T21:56:20.700Z,94931.28
2019-01-26T21:59:10.399Z,94920.44
2019-01-26T22:02:00.070Z,94910.51
2019-01-26T22:08:16.305Z,94917.40
2019-01-26T22:11:06.312Z,94884.66
2019-01-26T22:13:55.946Z,94936.73
2019-01-26T22:16:45.599Z,94936.73
2019-01-26T22:19:35.436Z,94918.85
2019-01-26T22:22:25.143Z,94933.38
2019-01-26T22:28:11.129Z,94889.58
2019-01-26T22:36:56.209Z,94943.19
2019-01-26T22:42:41.935Z,94935.73
2019-01-26T22:54:15.298Z,94915.13
2019-01-26T23:27:19.439Z,94843.19
2019-01-26T23:32:52.826Z,94808.09
2019-01-26T23:44:22.944Z,94782.76
2019-01-26T23:47:27.436Z,94763.09
